Time;durP1;ratioP1;P1;durP2;ratioP2;P2;SDS_P1;SDS_P2;PMS_P1;PMS_P2;Temp;Humidity;BMP_temperature;BMP_pressure;BME280_temperature;BME280_humidity;BME280_pressure;Samples;Min_cycle;Max_cycle;Signal;HPM_P1;HPM_P2
2023/11/28 00:00:36;;;;;;;31.00;15.00;;;-2.40;99.90;;;;;;4195368;28;20765;-55
2023/11/28 00:02:39;;;;;;;33.77;15.63;;;-2.40;99.90;;;;;;4177556;28;20274;-59
2023/11/28 00:04:40;;;;;;;25.90;13.33;;;-2.30;99.90;;;;;;4195557;28;20609;-60
2023/11/28 00:06:41;;;;;;;26.63;14.17;;;-2.20;99.90;;;;;;4195829;28;20249;-56
2023/11/28 00:08:42;;;;;;;24.90;13.67;;;-2.20;99.90;;;;;;4195023;28;20790;-54
2023/11/28 00:10:44;;;;;;;21.73;11.93;;;-2.30;99.90;;;;;;4195981;28;20646;-59
2023/11/28 00:12:45;;;;;;;28.37;14.00;;;-2.30;99.90;;;;;;4194660;28;20291;-56
2023/11/28 00:14:47;;;;;;;31.33;14.07;;;-2.30;99.90;;;;;;4195158;28;20289;-58
2023/11/28 00:16:48;;;;;;;23.03;12.40;;;-2.30;99.90;;;;;;4194290;28;20680;-53
2023/11/28 00:18:49;;;;;;;24.00;11.60;;;-2.30;99.90;;;;;;4195200;28;20334;-53
2023/11/28 00:20:50;;;;;;;23.93;12.17;;;-2.30;99.90;;;;;;4194431;28;20679;-53
2023/11/28 00:22:51;;;;;;;24.67;13.30;;;-2.30;99.90;;;;;;4195501;28;20273;-53
2023/11/28 00:24:52;;;;;;;23.37;12.00;;;-2.30;99.90;;;;;;4194300;28;20330;-53
2023/11/28 00:26:54;;;;;;;23.80;12.30;;;-2.30;99.90;;;;;;4195404;28;20690;-58
2023/11/28 00:28:55;;;;;;;22.67;11.03;;;-2.30;99.90;;;;;;4200044;28;20342;-58
2023/11/28 00:30:56;;;;;;;20.87;10.53;;;-2.30;99.90;;;;;;4211400;28;20276;-53
2023/11/28 00:32:57;;;;;;;22.80;10.87;;;-2.40;99.90;;;;;;4210937;28;20268;-56
2023/11/28 00:34:59;;;;;;;22.73;11.33;;;-2.40;99.90;;;;;;4210585;28;20737;-57
2023/11/28 00:37:00;;;;;;;22.50;10.93;;;-2.30;99.90;;;;;;4194357;28;20757;-59
2023/11/28 00:39:03;;;;;;;21.77;9.90;;;-2.30;99.90;;;;;;4194259;28;20347;-57
2023/11/28 00:41:05;;;;;;;23.07;11.83;;;-2.30;99.90;;;;;;4194890;28;20830;-58
2023/11/28 00:43:07;;;;;;;20.43;10.57;;;-2.30;99.90;;;;;;4194497;28;20272;-58
2023/11/28 00:45:08;;;;;;;22.07;10.77;;;-2.30;99.90;;;;;;4194675;28;20277;-57
2023/11/28 00:47:09;;;;;;;21.20;9.83;;;-2.20;99.90;;;;;;4194030;28;20293;-56
2023/11/28 00:49:14;;;;;;;21.37;9.80;;;-2.20;99.90;;;;;;4193913;28;20277;-60
2023/11/28 00:51:15;;;;;;;15.40;9.80;;;-2.20;99.90;;;;;;4192581;28;20343;-52
2023/11/28 00:53:17;;;;;;;18.13;9.07;;;-2.10;99.90;;;;;;4194574;28;20358;-60
2023/11/28 00:55:18;;;;;;;16.50;8.80;;;-2.10;99.90;;;;;;4194262;28;20278;-58
2023/11/28 00:57:19;;;;;;;18.33;9.50;;;-2.10;99.90;;;;;;4194480;28;20261;-58
2023/11/28 00:59:21;;;;;;;17.43;9.60;;;-2.00;99.90;;;;;;4194417;28;20643;-57
2023/11/28 01:01:22;;;;;;;15.40;8.90;;;-2.00;99.90;;;;;;4193827;28;20638;-60
2023/11/28 01:03:23;;;;;;;17.20;9.03;;;-1.90;99.90;;;;;;4194377;28;20255;-56
2023/11/28 01:05:25;;;;;;;16.43;9.13;;;-1.90;99.90;;;;;;4193060;28;20270;-59
2023/11/28 01:07:26;;;;;;;14.87;8.10;;;-1.90;99.90;;;;;;4193162;28;20338;-59
2023/11/28 01:09:27;;;;;;;16.90;8.33;;;-1.80;99.90;;;;;;4194490;28;20684;-57
2023/11/28 01:11:28;;;;;;;15.00;7.60;;;-1.80;99.90;;;;;;4194428;28;20343;-59
2023/11/28 01:13:29;;;;;;;12.70;7.83;;;-1.70;99.90;;;;;;4192158;28;20293;-61
2023/11/28 01:15:31;;;;;;;15.13;7.50;;;-1.70;99.90;;;;;;4194336;28;20668;-57
2023/11/28 01:17:32;;;;;;;10.07;6.23;;;-1.60;99.90;;;;;;4192364;28;20281;-54
2023/11/28 01:19:38;;;;;;;13.20;6.67;;;-1.60;99.90;;;;;;4193914;28;20311;-58
2023/11/28 01:21:39;;;;;;;10.10;6.17;;;-1.50;99.90;;;;;;4193091;28;20274;-57
2023/11/28 01:23:40;;;;;;;11.33;6.60;;;-1.50;99.90;;;;;;4193850;28;20347;-58
2023/11/28 01:25:42;;;;;;;11.50;6.10;;;-1.50;99.90;;;;;;4194054;28;20257;-57
2023/11/28 01:27:43;;;;;;;11.40;5.60;;;-1.40;99.90;;;;;;4193973;28;20269;-56
2023/11/28 01:29:44;;;;;;;10.77;5.67;;;-1.40;99.90;;;;;;4193188;28;20265;-57
2023/11/28 01:31:45;;;;;;;11.53;6.53;;;-1.40;99.90;;;;;;4193591;28;20269;-54
2023/11/28 01:33:47;;;;;;;10.40;6.23;;;-1.40;99.90;;;;;;4192052;28;20293;-57
2023/11/28 01:35:48;;;;;;;11.27;5.87;;;-1.30;99.90;;;;;;4193476;28;20326;-57
2023/11/28 01:37:49;;;;;;;11.83;6.07;;;-1.30;99.90;;;;;;4193114;28;20338;-58
2023/11/28 01:39:50;;;;;;;8.93;6.13;;;-1.30;99.90;;;;;;4193486;28;20307;-54
2023/11/28 01:41:51;;;;;;;9.87;5.80;;;-1.30;99.90;;;;;;4194132;28;20315;-55
2023/11/28 01:43:52;;;;;;;13.13;6.47;;;-1.30;99.90;;;;;;4192730;28;20636;-55
2023/11/28 01:45:54;;;;;;;10.50;5.57;;;-1.30;99.90;;;;;;4193791;28;20664;-53
2023/11/28 01:47:56;;;;;;;11.03;5.80;;;-1.20;99.90;;;;;;4192442;28;20273;-56
2023/11/28 01:49:58;;;;;;;8.80;5.47;;;-1.20;99.90;;;;;;4192987;28;20672;-54
2023/11/28 01:51:59;;;;;;;11.37;6.47;;;-1.20;99.90;;;;;;4193089;28;20250;-56
2023/11/28 01:54:03;;;;;;;8.57;5.17;;;-1.20;99.90;;;;;;4193887;28;20353;-54
2023/11/28 01:56:04;;;;;;;8.83;4.93;;;-1.20;99.90;;;;;;4192204;28;20258;-57
2023/11/28 01:58:06;;;;;;;12.03;5.50;;;-1.10;99.90;;;;;;4193085;28;20273;-56
2023/11/28 02:00:08;;;;;;;11.23;5.73;;;-1.10;99.90;;;;;;4192613;28;20257;-57
2023/11/28 02:02:10;;;;;;;9.93;5.33;;;-1.10;99.90;;;;;;4192869;28;20591;-56
2023/11/28 02:04:11;;;;;;;12.33;6.00;;;-1.10;99.90;;;;;;4193504;28;20366;-59
2023/11/28 02:06:12;;;;;;;9.50;4.97;;;-1.10;99.90;;;;;;4193910;28;20308;-59
2023/11/28 02:08:14;;;;;;;9.50;5.33;;;-1.10;99.90;;;;;;4193760;28;20253;-57
2023/11/28 02:10:15;;;;;;;7.43;5.10;;;-1.10;99.90;;;;;;4193089;28;20876;-59
2023/11/28 02:12:16;;;;;;;8.97;5.77;;;-1.00;99.90;;;;;;4192274;28;20273;-58
2023/11/28 02:14:18;;;;;;;9.00;5.53;;;-1.00;99.90;;;;;;4193178;28;20289;-54
2023/11/28 02:16:19;;;;;;;11.17;5.40;;;-1.00;99.90;;;;;;4194094;28;20265;-57
2023/11/28 02:18:20;;;;;;;11.37;5.40;;;-1.00;99.90;;;;;;4192312;28;20661;-54
2023/11/28 02:20:21;;;;;;;8.27;5.23;;;-1.00;99.90;;;;;;4194017;28;20265;-57
2023/11/28 02:22:24;;;;;;;10.63;5.43;;;-0.90;99.90;;;;;;4191837;28;20265;-58
2023/11/28 02:24:27;;;;;;;10.60;5.60;;;-0.90;99.90;;;;;;4193851;28;20734;-55
2023/11/28 02:26:29;;;;;;;9.73;5.70;;;-0.90;99.90;;;;;;4191873;28;20319;-58
2023/11/28 02:28:30;;;;;;;8.53;5.00;;;-0.90;99.90;;;;;;4192986;28;20289;-57
2023/11/28 02:30:31;;;;;;;8.33;4.50;;;-0.80;99.90;;;;;;4192875;28;20273;-56
2023/11/28 02:32:32;;;;;;;7.43;4.53;;;-0.80;99.90;;;;;;4192341;28;20280;-54
2023/11/28 02:34:33;;;;;;;12.03;5.13;;;-0.80;99.90;;;;;;4192853;28;20289;-58
2023/11/28 02:36:34;;;;;;;6.67;4.77;;;-0.70;99.90;;;;;;4193541;28;20735;-61
2023/11/28 02:38:36;;;;;;;6.43;4.10;;;-0.70;99.90;;;;;;4192094;28;20265;-58
2023/11/28 02:40:37;;;;;;;7.00;4.67;;;-0.70;99.90;;;;;;4191953;28;20765;-56
2023/11/28 02:42:38;;;;;;;7.77;4.57;;;-0.60;99.90;;;;;;4192386;28;20328;-57
2023/11/28 02:44:39;;;;;;;8.50;3.90;;;-0.60;99.90;;;;;;4191951;28;20273;-59
2023/11/28 02:46:41;;;;;;;8.80;4.57;;;-0.60;99.90;;;;;;4193427;28;20265;-57
2023/11/28 02:48:43;;;;;;;7.77;4.20;;;-0.60;99.90;;;;;;4192722;28;20265;-59
2023/11/28 02:50:44;;;;;;;7.83;4.53;;;-0.50;99.90;;;;;;4193219;28;20265;-59
2023/11/28 02:52:45;;;;;;;8.07;4.50;;;-0.50;99.90;;;;;;4191837;28;20614;-57
2023/11/28 02:54:46;;;;;;;11.60;4.53;;;-0.50;99.90;;;;;;4192351;28;20704;-56
2023/11/28 02:56:48;;;;;;;6.37;4.37;;;-0.50;99.90;;;;;;4191936;28;20266;-57
2023/11/28 02:58:50;;;;;;;8.67;4.83;;;-0.50;99.90;;;;;;4193466;28;20269;-58
2023/11/28 03:00:52;;;;;;;8.00;4.73;;;-0.50;99.90;;;;;;4191604;28;20257;-57
2023/11/28 03:02:53;;;;;;;7.80;4.33;;;-0.40;99.90;;;;;;4192928;28;20261;-58
2023/11/28 03:04:54;;;;;;;8.93;4.37;;;-0.40;99.90;;;;;;4191254;28;20300;-56
2023/11/28 03:06:55;;;;;;;12.70;5.37;;;-0.40;99.90;;;;;;4191991;28;20315;-56
2023/11/28 03:08:56;;;;;;;9.13;4.83;;;-0.50;99.90;;;;;;4191495;28;20331;-54
2023/11/28 03:10:58;;;;;;;5.80;3.80;;;-0.40;99.90;;;;;;4192667;28;20317;-57
2023/11/28 03:12:59;;;;;;;7.30;4.77;;;-0.40;99.90;;;;;;4191951;28;20281;-57
2023/11/28 03:15:01;;;;;;;7.50;4.50;;;-0.40;99.90;;;;;;4191318;28;20382;-57
2023/11/28 03:17:03;;;;;;;6.20;4.00;;;-0.40;99.90;;;;;;4192182;28;20315;-55
2023/11/28 03:19:04;;;;;;;9.00;4.33;;;-0.40;99.90;;;;;;4192354;28;20326;-57
2023/11/28 03:21:05;;;;;;;6.57;4.33;;;-0.40;99.90;;;;;;4192383;28;20961;-56
2023/11/28 03:23:06;;;;;;;8.67;4.70;;;-0.30;99.90;;;;;;4191212;28;20438;-57
2023/11/28 03:25:09;;;;;;;9.03;4.77;;;-0.30;99.90;;;;;;4192219;28;20343;-57
2023/11/28 03:27:12;;;;;;;6.50;3.77;;;-0.30;99.90;;;;;;4190374;28;20273;-57
2023/11/28 03:29:14;;;;;;;7.50;4.63;;;-0.30;99.90;;;;;;4192007;28;20282;-59
2023/11/28 03:31:15;;;;;;;7.23;3.93;;;-0.30;99.90;;;;;;4191124;28;20678;-53
2023/11/28 03:33:16;;;;;;;8.53;4.43;;;-0.20;99.90;;;;;;4191940;28;20348;-55
2023/11/28 03:35:17;;;;;;;7.20;4.03;;;-0.20;99.90;;;;;;4191654;28;20428;-55
2023/11/28 03:37:18;;;;;;;8.70;4.50;;;-0.20;99.90;;;;;;4191757;28;20364;-55
2023/11/28 03:39:19;;;;;;;7.83;4.60;;;-0.10;99.90;;;;;;4191466;28;20335;-55
2023/11/28 03:41:21;;;;;;;6.80;4.10;;;-0.10;99.90;;;;;;4191987;28;20319;-59
2023/11/28 03:43:22;;;;;;;6.67;4.20;;;0.00;99.90;;;;;;4191879;28;20327;-56
2023/11/28 03:45:23;;;;;;;7.30;4.33;;;0.00;99.90;;;;;;4192076;28;20258;-56
2023/11/28 03:47:24;;;;;;;6.37;3.70;;;0.00;99.90;;;;;;4192568;28;20695;-58
2023/11/28 03:49:26;;;;;;;6.07;3.80;;;0.00;99.90;;;;;;4191947;28;20314;-51
2023/11/28 03:51:27;;;;;;;7.87;4.37;;;0.10;99.90;;;;;;4191631;28;20323;-57
2023/11/28 03:53:28;;;;;;;8.13;4.63;;;0.10;99.90;;;;;;4192107;28;20320;-59
2023/11/28 03:55:29;;;;;;;6.60;3.70;;;0.10;99.90;;;;;;4192430;28;20293;-57
2023/11/28 03:57:30;;;;;;;8.13;4.30;;;0.10;99.90;;;;;;4190307;28;20273;-58
2023/11/28 03:59:32;;;;;;;5.43;3.67;;;0.10;99.90;;;;;;4191908;28;20285;-54
2023/11/28 04:01:33;;;;;;;6.83;3.93;;;0.10;99.90;;;;;;4190671;28;20278;-55
2023/11/28 04:03:34;;;;;;;9.37;5.30;;;0.10;99.90;;;;;;4191443;28;20788;-58
2023/11/28 04:05:35;;;;;;;5.90;4.60;;;0.10;99.90;;;;;;4191866;28;20274;-56
2023/11/28 04:07:36;;;;;;;6.10;3.73;;;0.10;99.90;;;;;;4191722;28;20765;-55
2023/11/28 04:09:38;;;;;;;8.43;4.07;;;0.10;99.90;;;;;;4191109;28;20285;-55
2023/11/28 04:11:39;;;;;;;7.77;3.70;;;0.10;99.90;;;;;;4192377;28;20628;-56
2023/11/28 04:13:40;;;;;;;5.77;3.53;;;0.10;99.90;;;;;;4191895;28;20692;-56
2023/11/28 04:15:43;;;;;;;6.40;3.40;;;0.10;99.90;;;;;;4191199;28;20362;-57
2023/11/28 04:17:44;;;;;;;7.67;3.63;;;0.10;99.90;;;;;;4191971;28;20278;-56
2023/11/28 04:19:45;;;;;;;6.87;4.00;;;0.10;99.90;;;;;;4191000;28;20672;-54
2023/11/28 04:21:46;;;;;;;7.13;4.63;;;0.10;99.90;;;;;;4192365;28;21063;-57
2023/11/28 04:23:48;;;;;;;7.93;3.77;;;0.10;99.90;;;;;;4190515;28;20684;-58
2023/11/28 04:25:49;;;;;;;7.73;3.57;;;0.20;99.90;;;;;;4191469;28;20335;-58
2023/11/28 04:27:51;;;;;;;7.87;3.70;;;0.20;99.90;;;;;;4190007;28;20422;-57
2023/11/28 04:29:52;;;;;;;6.63;4.20;;;0.20;99.90;;;;;;4192452;28;20281;-54
2023/11/28 04:31:53;;;;;;;6.90;4.00;;;0.30;99.90;;;;;;4190266;28;20265;-54
2023/11/28 04:33:55;;;;;;;5.73;3.47;;;0.20;99.90;;;;;;4191559;28;20722;-52
2023/11/28 04:35:56;;;;;;;6.87;3.67;;;0.30;99.90;;;;;;4191088;28;20300;-56
2023/11/28 04:37:57;;;;;;;4.83;3.67;;;0.30;99.90;;;;;;4191346;28;20361;-57
2023/11/28 04:39:58;;;;;;;6.27;3.73;;;0.40;99.90;;;;;;4191360;28;20315;-58
2023/11/28 04:42:00;;;;;;;5.93;3.97;;;0.40;99.90;;;;;;4194349;28;20338;-57
2023/11/28 04:44:01;;;;;;;6.20;3.90;;;0.50;99.90;;;;;;4194752;28;20721;-55
2023/11/28 04:46:02;;;;;;;7.43;4.37;;;0.50;99.90;;;;;;4194943;28;20327;-57
2023/11/28 04:48:03;;;;;;;6.73;4.30;;;0.50;99.90;;;;;;4195522;28;20253;-56
2023/11/28 04:50:05;;;;;;;7.23;4.50;;;0.50;99.90;;;;;;4193890;28;20269;-56
2023/11/28 04:52:07;;;;;;;6.47;3.70;;;0.50;99.90;;;;;;4194771;28;20315;-56
2023/11/28 04:54:08;;;;;;;7.33;4.47;;;0.50;99.90;;;;;;4175675;28;20343;-57
2023/11/28 04:56:09;;;;;;;7.13;4.37;;;0.50;99.90;;;;;;4193843;28;20803;-57
2023/11/28 04:58:10;;;;;;;9.37;5.03;;;0.50;99.90;;;;;;4192501;28;20266;-52
2023/11/28 05:00:12;;;;;;;8.27;3.97;;;0.60;99.90;;;;;;4194476;28;20289;-57
2023/11/28 05:02:14;;;;;;;5.77;3.37;;;0.70;99.90;;;;;;4194108;28;20335;-56
2023/11/28 05:04:15;;;;;;;6.80;3.30;;;0.80;99.90;;;;;;4194539;28;20265;-57
2023/11/28 05:06:16;;;;;;;6.73;4.00;;;1.00;99.90;;;;;;4193386;28;20274;-57
2023/11/28 05:08:17;;;;;;;5.27;3.23;;;1.00;99.90;;;;;;4194290;28;20257;-57
2023/11/28 05:10:19;;;;;;;4.53;2.50;;;0.90;99.90;;;;;;4194174;28;20325;-58
2023/11/28 05:12:20;;;;;;;4.40;2.57;;;0.90;99.90;;;;;;4194544;28;20338;-58
2023/11/28 05:14:21;;;;;;;5.97;3.40;;;0.90;99.90;;;;;;4194343;28;20281;-56
2023/11/28 05:16:22;;;;;;;5.87;3.83;;;0.90;99.90;;;;;;4193712;28;20604;-59
2023/11/28 05:18:23;;;;;;;5.97;3.70;;;0.90;99.90;;;;;;4194613;28;20311;-57
2023/11/28 05:20:24;;;;;;;5.67;3.10;;;0.90;99.90;;;;;;4193413;28;20261;-59
2023/11/28 05:22:26;;;;;;;8.07;4.10;;;0.90;99.90;;;;;;4193717;28;20315;-57
2023/11/28 05:24:27;;;;;;;3.67;2.40;;;0.90;99.90;;;;;;4193343;28;20265;-59
2023/11/28 05:26:28;;;;;;;3.57;2.40;;;0.90;99.90;;;;;;4194501;28;20402;-57
2023/11/28 05:28:29;;;;;;;4.47;2.47;;;0.80;99.90;;;;;;4192688;28;21167;-57
2023/11/28 05:30:30;;;;;;;5.23;2.70;;;0.80;99.90;;;;;;4194509;28;20315;-57
2023/11/28 05:32:31;;;;;;;3.13;2.40;;;0.80;99.90;;;;;;4192731;28;20295;-59
2023/11/28 05:34:33;;;;;;;4.03;2.70;;;0.70;99.90;;;;;;4180009;28;20313;-57
2023/11/28 05:36:34;;;;;;;5.60;2.03;;;0.80;99.90;;;;;;4190174;28;20274;-58
2023/11/28 05:38:35;;;;;;;3.60;2.73;;;0.80;99.90;;;;;;4193586;28;20334;-57
2023/11/28 05:40:36;;;;;;;3.73;2.77;;;0.80;99.90;;;;;;4193560;28;20323;-57
2023/11/28 05:42:37;;;;;;;3.73;2.43;;;0.80;99.90;;;;;;4192937;28;20289;-56
2023/11/28 05:44:39;;;;;;;4.97;2.50;;;0.80;99.90;;;;;;4192985;28;20757;-53
2023/11/28 05:46:40;;;;;;;3.17;2.27;;;0.80;99.90;;;;;;4192085;28;20285;-55
2023/11/28 05:48:41;;;;;;;5.07;2.90;;;0.80;99.90;;;;;;4193993;28;20395;-59
2023/11/28 05:50:42;;;;;;;3.90;2.50;;;0.80;99.90;;;;;;4192969;28;20262;-56
2023/11/28 05:52:44;;;;;;;4.63;2.67;;;0.80;99.90;;;;;;4193481;28;20351;-55
2023/11/28 05:54:45;;;;;;;4.87;2.60;;;0.70;99.90;;;;;;4192394;28;21166;-51
2023/11/28 05:56:47;;;;;;;3.23;2.30;;;0.80;99.90;;;;;;4194328;28;20315;-51
2023/11/28 05:58:48;;;;;;;5.43;2.60;;;0.80;99.90;;;;;;4193103;28;20335;-50
2023/11/28 06:00:49;;;;;;;3.40;2.53;;;0.80;99.90;;;;;;4192411;28;20323;-58
2023/11/28 06:02:50;;;;;;;4.07;2.43;;;0.80;99.90;;;;;;4192192;28;20273;-56
2023/11/28 06:04:52;;;;;;;3.97;2.67;;;0.80;99.90;;;;;;4193594;28;20285;-55
2023/11/28 06:06:53;;;;;;;4.67;2.47;;;0.80;99.90;;;;;;4192958;28;20269;-53
2023/11/28 06:08:54;;;;;;;4.60;2.87;;;0.80;99.90;;;;;;4192970;28;20269;-57
2023/11/28 06:10:55;;;;;;;4.50;3.30;;;0.90;99.90;;;;;;4192891;28;20289;-53
2023/11/28 06:12:57;;;;;;;3.43;2.13;;;0.90;99.90;;;;;;4192850;28;20299;-58
2023/11/28 06:14:59;;;;;;;4.00;2.70;;;0.90;99.90;;;;;;4174741;28;20351;-55
2023/11/28 06:17:00;;;;;;;2.73;2.40;;;1.00;99.90;;;;;;4192867;28;20330;-56
2023/11/28 06:19:03;;;;;;;3.43;2.20;;;1.00;99.90;;;;;;4192443;28;20311;-58
2023/11/28 06:21:08;;;;;;;5.10;2.40;;;1.00;99.90;;;;;;4193034;28;20323;-55
2023/11/28 06:23:11;;;;;;;3.43;2.23;;;1.00;99.90;;;;;;4192586;28;20266;-55
2023/11/28 06:25:12;;;;;;;4.83;2.03;;;1.00;99.90;;;;;;4192966;28;21143;-51
2023/11/28 06:27:13;;;;;;;4.00;2.23;;;1.00;99.90;;;;;;4193252;28;20306;-56
2023/11/28 06:29:14;;;;;;;3.53;2.20;;;1.00;99.90;;;;;;4192373;28;20269;-57
2023/11/28 06:31:20;;;;;;;3.60;1.70;;;1.10;99.90;;;;;;4193309;28;20302;-55
2023/11/28 06:33:21;;;;;;;2.50;1.73;;;1.10;99.90;;;;;;4191909;28;20274;-56
2023/11/28 06:35:24;;;;;;;5.60;2.30;;;1.20;99.90;;;;;;4193384;28;20366;-55
2023/11/28 06:37:26;;;;;;;3.27;2.20;;;1.20;99.90;;;;;;4191989;28;20277;-57
2023/11/28 06:39:29;;;;;;;2.97;2.10;;;1.20;99.90;;;;;;4192667;28;20377;-57
2023/11/28 06:41:30;;;;;;;4.17;1.77;;;1.20;99.90;;;;;;4191562;28;20273;-57
2023/11/28 06:43:31;;;;;;;3.33;2.10;;;1.20;99.90;;;;;;4192486;28;20327;-61
2023/11/28 06:45:33;;;;;;;4.27;2.77;;;1.20;99.90;;;;;;4192789;28;20605;-56
2023/11/28 06:47:34;;;;;;;4.60;2.70;;;1.10;99.90;;;;;;4192541;28;20323;-56
2023/11/28 06:49:35;;;;;;;4.23;2.60;;;1.10;99.90;;;;;;4192505;28;20269;-59
2023/11/28 06:51:36;;;;;;;4.87;2.83;;;1.00;99.90;;;;;;4192739;28;20713;-59
2023/11/28 06:53:38;;;;;;;4.23;2.40;;;1.00;99.90;;;;;;4191906;28;20757;-55
2023/11/28 06:55:39;;;;;;;3.70;2.47;;;0.90;99.90;;;;;;4192373;28;20765;-58
2023/11/28 06:57:40;;;;;;;4.10;2.33;;;0.90;99.90;;;;;;4192266;28;20383;-55
2023/11/28 06:59:41;;;;;;;4.10;2.70;;;0.90;99.90;;;;;;4191563;28;20269;-56
2023/11/28 07:01:43;;;;;;;4.97;2.53;;;0.90;99.90;;;;;;4192313;28;20311;-58
2023/11/28 07:03:44;;;;;;;9.27;3.23;;;0.90;99.90;;;;;;4191437;28;20261;-56
2023/11/28 07:05:45;;;;;;;3.97;2.73;;;0.90;99.90;;;;;;4192722;28;20750;-57
2023/11/28 07:07:47;;;;;;;4.47;2.90;;;0.90;99.90;;;;;;4191552;28;20673;-55
2023/11/28 07:09:48;;;;;;;4.57;2.63;;;0.90;99.90;;;;;;4193088;28;20668;-55
2023/11/28 07:11:55;;;;;;;5.17;3.07;;;1.00;99.90;;;;;;4190936;28;20311;-54
2023/11/28 07:13:56;;;;;;;5.77;3.73;;;1.00;99.90;;;;;;4192869;28;20282;-60
2023/11/28 07:15:57;;;;;;;5.17;3.13;;;1.00;99.90;;;;;;4192068;28;20297;-58
2023/11/28 07:18:00;;;;;;;5.53;3.03;;;1.00;99.90;;;;;;4192454;28;20319;-56
2023/11/28 07:20:02;;;;;;;5.77;3.47;;;1.10;99.90;;;;;;4192282;28;20257;-57
2023/11/28 07:22:03;;;;;;;6.97;3.60;;;1.20;99.90;;;;;;4191566;28;20262;-55
2023/11/28 07:24:05;;;;;;;10.13;4.93;;;1.20;99.90;;;;;;4192333;28;20988;-59
2023/11/28 07:26:06;;;;;;;6.57;3.93;;;1.20;99.90;;;;;;4191522;28;20281;-58
2023/11/28 07:28:08;;;;;;;6.80;3.47;;;1.10;99.90;;;;;;4192509;28;20323;-56
2023/11/28 07:30:10;;;;;;;6.97;3.23;;;1.00;99.90;;;;;;4192054;28;20347;-54
2023/11/28 07:32:12;;;;;;;6.13;3.97;;;0.90;99.90;;;;;;4192559;28;20654;-50
2023/11/28 07:34:13;;;;;;;6.53;2.97;;;0.90;99.90;;;;;;4191881;28;20293;-56
2023/11/28 07:36:14;;;;;;;4.60;2.97;;;0.90;99.90;;;;;;4192522;28;20640;-57
2023/11/28 07:38:16;;;;;;;3.77;2.53;;;0.90;99.90;;;;;;4190294;28;20827;-58
2023/11/28 07:40:17;;;;;;;8.63;3.40;;;0.90;99.90;;;;;;4192935;28;20335;-57
2023/11/28 07:42:18;;;;;;;5.83;2.97;;;0.90;99.90;;;;;;4191541;28;20281;-56
2023/11/28 07:44:20;;;;;;;6.60;2.80;;;1.00;99.90;;;;;;4192152;28;20659;-54
2023/11/28 07:46:23;;;;;;;7.17;3.93;;;1.00;99.90;;;;;;4190844;28;20277;-57
2023/11/28 07:48:24;;;;;;;7.23;3.63;;;1.00;99.90;;;;;;4193133;28;20342;-55
2023/11/28 07:50:25;;;;;;;4.63;2.80;;;1.10;99.90;;;;;;4191187;28;20315;-59
2023/11/28 07:52:26;;;;;;;6.47;3.53;;;1.20;99.90;;;;;;4192499;28;20265;-56
2023/11/28 07:54:27;;;;;;;5.53;2.77;;;1.20;99.90;;;;;;4191429;28;20323;-54
2023/11/28 07:56:29;;;;;;;5.30;2.80;;;1.30;99.90;;;;;;4191416;28;20297;-59
2023/11/28 07:58:30;;;;;;;6.77;2.87;;;1.30;99.90;;;;;;4191550;28;20261;-60
2023/11/28 08:00:31;;;;;;;4.77;2.60;;;1.30;99.90;;;;;;4191929;28;20258;-54
2023/11/28 08:02:32;;;;;;;4.23;2.73;;;1.20;99.90;;;;;;4191890;28;20338;-56
2023/11/28 08:04:33;;;;;;;4.50;2.30;;;1.30;99.90;;;;;;4191235;28;20363;-56
2023/11/28 08:06:34;;;;;;;5.57;3.53;;;1.30;99.90;;;;;;4192535;28;20311;-57
2023/11/28 08:08:36;;;;;;;6.97;3.10;;;1.20;99.90;;;;;;4190860;28;20273;-54
2023/11/28 08:10:37;;;;;;;7.00;3.97;;;1.20;99.90;;;;;;4192539;28;20288;-56
2023/11/28 08:12:39;;;;;;;6.47;3.33;;;1.20;99.90;;;;;;4191288;28;20644;-59
2023/11/28 08:14:40;;;;;;;8.40;4.13;;;1.20;99.90;;;;;;4193691;28;20318;-59
2023/11/28 08:16:41;;;;;;;11.40;4.53;;;1.30;99.90;;;;;;4193933;28;20789;-58
2023/11/28 08:18:42;;;;;;;12.83;5.87;;;1.20;99.90;;;;;;4195503;28;20615;-58
2023/11/28 08:20:43;;;;;;;12.00;6.00;;;1.20;99.90;;;;;;4194157;28;20323;-57
2023/11/28 08:22:45;;;;;;;7.37;4.07;;;1.20;99.90;;;;;;4194966;28;20775;-57
2023/11/28 08:24:46;;;;;;;4.03;2.50;;;1.20;99.90;;;;;;4194107;28;20277;-57
2023/11/28 08:26:47;;;;;;;5.60;2.70;;;1.40;99.90;;;;;;4194377;28;20687;-55
2023/11/28 08:28:48;;;;;;;4.13;2.63;;;1.40;99.90;;;;;;4194940;28;20672;-55
2023/11/28 08:30:50;;;;;;;4.73;2.70;;;1.50;99.90;;;;;;4193944;28;20370;-57
2023/11/28 08:32:51;;;;;;;1.93;1.63;;;1.70;99.90;;;;;;4195136;28;20326;-55
2023/11/28 08:34:53;;;;;;;3.67;2.03;;;1.80;99.90;;;;;;4176546;28;20262;-59
2023/11/28 08:36:54;;;;;;;3.77;2.20;;;1.70;99.90;;;;;;4194587;28;20266;-58
2023/11/28 08:38:55;;;;;;;11.53;2.83;;;1.60;99.90;;;;;;4193432;28;20265;-56
2023/11/28 08:40:57;;;;;;;4.73;2.43;;;1.60;99.90;;;;;;4195081;28;20273;-59
2023/11/28 08:42:58;;;;;;;5.13;2.50;;;1.50;99.90;;;;;;4193219;28;20312;-52
2023/11/28 08:45:00;;;;;;;5.70;2.90;;;1.50;99.90;;;;;;4194880;28;20261;-59
2023/11/28 08:47:01;;;;;;;4.93;2.83;;;1.50;99.90;;;;;;4192980;28;20323;-56
2023/11/28 08:49:02;;;;;;;6.07;2.80;;;1.60;99.90;;;;;;4194752;28;20269;-59
2023/11/28 08:51:03;;;;;;;5.10;3.27;;;1.60;99.90;;;;;;4176477;28;20316;-54
2023/11/28 08:53:04;;;;;;;8.07;3.67;;;1.50;99.90;;;;;;4194159;28;20270;-56
2023/11/28 08:55:06;;;;;;;5.40;3.33;;;1.50;99.90;;;;;;4194091;28;20759;-59
2023/11/28 08:57:08;;;;;;;5.57;3.57;;;1.40;99.90;;;;;;4193787;28;20273;-57
2023/11/28 08:59:09;;;;;;;5.47;3.20;;;1.30;99.90;;;;;;4193915;28;20270;-56
2023/11/28 09:01:10;;;;;;;5.67;3.57;;;1.30;99.90;;;;;;4194308;28;20257;-61
2023/11/28 09:03:12;;;;;;;7.87;3.60;;;1.20;99.90;;;;;;4193669;28;20307;-58
2023/11/28 09:05:14;;;;;;;6.83;3.67;;;1.20;99.90;;;;;;4193450;28;20269;-58
2023/11/28 09:07:15;;;;;;;6.43;3.73;;;1.20;99.90;;;;;;4194756;28;20261;-58
2023/11/28 09:09:16;;;;;;;6.43;3.07;;;1.20;99.90;;;;;;4193303;28;20253;-56
2023/11/28 09:11:18;;;;;;;7.73;4.10;;;1.20;99.90;;;;;;4194058;28;20318;-59
2023/11/28 09:13:20;;;;;;;9.47;4.77;;;1.20;99.90;;;;;;4193446;28;20361;-58
2023/11/28 09:15:21;;;;;;;10.83;4.40;;;1.20;99.90;;;;;;4194701;28;20261;-56
2023/11/28 09:17:22;;;;;;;6.27;3.60;;;1.20;99.90;;;;;;4193741;28;20738;-54
2023/11/28 09:19:23;;;;;;;6.80;3.43;;;1.30;99.90;;;;;;4194747;28;20691;-57
2023/11/28 09:21:24;;;;;;;6.07;3.53;;;1.30;99.90;;;;;;4193529;28;20258;-52
2023/11/28 09:23:25;;;;;;;8.13;3.50;;;1.30;99.90;;;;;;4194414;28;20637;-57
2023/11/28 09:25:26;;;;;;;7.73;4.07;;;1.30;99.90;;;;;;4192232;28;20274;-56
2023/11/28 09:27:28;;;;;;;7.67;4.10;;;1.40;99.90;;;;;;4193506;28;20285;-56
2023/11/28 09:29:29;;;;;;;7.43;4.10;;;1.40;99.90;;;;;;4193399;28;20296;-56
2023/11/28 09:31:30;;;;;;;5.27;3.30;;;1.30;99.90;;;;;;4193736;28;20330;-54
2023/11/28 09:33:31;;;;;;;6.60;3.47;;;1.30;99.90;;;;;;4194152;28;20265;-55
2023/11/28 09:35:32;;;;;;;6.53;3.73;;;1.30;99.90;;;;;;4192742;28;20649;-57
2023/11/28 09:37:35;;;;;;;8.30;5.00;;;1.30;99.90;;;;;;4193741;28;20552;-56
2023/11/28 09:39:37;;;;;;;6.93;4.30;;;1.30;99.90;;;;;;4193394;28;20265;-56
2023/11/28 09:41:43;;;;;;;8.73;3.53;;;1.30;99.90;;;;;;4194038;28;21133;-56
2023/11/28 09:43:48;;;;;;;9.40;4.00;;;1.40;99.90;;;;;;4191968;28;20335;-56
2023/11/28 09:45:50;;;;;;;8.33;3.53;;;1.40;99.90;;;;;;4193295;28;20258;-57
2023/11/28 09:47:53;;;;;;;6.47;4.20;;;1.50;99.90;;;;;;4193402;28;20323;-57
2023/11/28 09:49:57;;;;;;;6.60;4.07;;;1.50;99.90;;;;;;4194156;28;20315;-57
2023/11/28 09:52:00;;;;;;;4.87;3.33;;;1.50;99.90;;;;;;4192158;28;20258;-60
2023/11/28 09:54:02;;;;;;;6.63;4.23;;;1.50;99.90;;;;;;4193973;28;20613;-56
2023/11/28 09:56:05;;;;;;;7.93;3.87;;;1.60;99.90;;;;;;4192754;28;21239;-60
2023/11/28 09:58:07;;;;;;;7.43;3.50;;;1.50;99.90;;;;;;4193037;28;20274;-58
2023/11/28 10:00:11;;;;;;;7.27;4.17;;;1.50;99.90;;;;;;4192347;28;20331;-59
2023/11/28 10:02:14;;;;;;;7.50;3.80;;;1.60;99.90;;;;;;4192696;28;20282;-58
2023/11/28 10:04:15;;;;;;;12.97;4.37;;;1.70;99.90;;;;;;4193247;28;20732;-56
2023/11/28 10:06:24;;;;;;;7.97;4.33;;;1.70;99.90;;;;;;4192491;28;20657;-55
2023/11/28 10:08:28;;;;;;;4.80;3.27;;;1.70;99.90;;;;;;4193180;28;20334;-54
2023/11/28 10:10:32;;;;;;;5.07;3.70;;;1.80;99.90;;;;;;4192196;28;20327;-58
2023/11/28 10:12:34;;;;;;;7.10;4.27;;;1.90;99.90;;;;;;4192245;28;20315;-53
2023/11/28 10:14:38;;;;;;;6.47;3.60;;;2.10;99.90;;;;;;4192830;28;20261;-55
2023/11/28 10:16:42;;;;;;;7.50;4.20;;;2.20;99.90;;;;;;4193333;28;20292;-55
2023/11/28 10:18:45;;;;;;;4.13;3.10;;;2.10;99.90;;;;;;4193385;28;20281;-56
2023/11/28 10:20:47;;;;;;;6.40;3.27;;;2.10;99.90;;;;;;4192791;28;20354;-58
2023/11/28 10:22:51;;;;;;;7.37;3.77;;;2.30;99.90;;;;;;4191874;28;20308;-56
2023/11/28 10:24:56;;;;;;;6.87;3.57;;;2.40;99.90;;;;;;4193487;28;20821;-56
2023/11/28 10:26:57;;;;;;;6.50;4.37;;;2.40;99.90;;;;;;4191340;28;20265;-56
2023/11/28 10:29:00;;;;;;;6.00;3.90;;;2.30;99.90;;;;;;4192787;28;20266;-58
2023/11/28 10:31:06;;;;;;;9.00;5.10;;;2.30;99.90;;;;;;4191650;28;20327;-58
2023/11/28 10:33:07;;;;;;;9.73;5.17;;;2.20;99.90;;;;;;4192657;28;20274;-59
2023/11/28 10:35:09;;;;;;;12.50;4.53;;;2.20;99.90;;;;;;4192643;28;20299;-55